createdAt,value
2017-11-16T00:00:00.138Z,10.70
2017-11-16T00:02:27.612Z,10.70
2017-11-16T00:04:55.069Z,10.70
2017-11-16T00:07:22.620Z,10.70
2017-11-16T00:09:50.849Z,10.70
2017-11-16T00:12:18.326Z,10.60
2017-11-16T00:14:46.584Z,10.60
2017-11-16T00:17:14.841Z,10.60
2017-11-16T00:19:43.100Z,10.70
2017-11-16T00:22:10.640Z,10.60
2017-11-16T00:24:38.864Z,10.70
2017-11-16T00:27:06.449Z,10.60
2017-11-16T00:29:34.708Z,10.70
2017-11-16T00:32:02.165Z,10.70
2017-11-16T00:34:30.398Z,10.60
2017-11-16T00:36:57.865Z,10.60
2017-11-16T00:39:26.093Z,10.60
2017-11-16T00:41:53.637Z,10.60
2017-11-16T00:44:21.114Z,10.50
2017-11-16T00:46:49.353Z,10.50
2017-11-16T00:49:16.822Z,10.50
2017-11-16T00:51:44.342Z,10.50
2017-11-16T00:54:12.592Z,10.50
2017-11-16T00:56:40.142Z,10.50
2017-11-16T00:59:07.611Z,10.50
2017-11-16T01:01:35.084Z,10.50
2017-11-16T01:04:02.570Z,10.50
2017-11-16T01:06:30.828Z,10.50
2017-11-16T01:08:59.069Z,10.50
2017-11-16T01:11:26.633Z,10.50
2017-11-16T01:13:54.178Z,10.50
2017-11-16T01:16:22.442Z,10.50
2017-11-16T01:18:50.696Z,10.50
2017-11-16T01:21:18.391Z,10.50
2017-11-16T01:23:45.881Z,10.50
2017-11-16T01:26:13.345Z,10.50
2017-11-16T01:28:41.570Z,10.50
2017-11-16T01:31:09.129Z,10.50
2017-11-16T01:33:37.355Z,10.50
2017-11-16T01:36:04.842Z,10.50
2017-11-16T01:38:33.064Z,10.50
2017-11-16T01:41:00.637Z,10.50
2017-11-16T01:43:28.874Z,10.50
2017-11-16T01:45:56.331Z,10.50
2017-11-16T01:48:23.881Z,10.50
2017-11-16T01:50:52.109Z,10.50
2017-11-16T01:53:19.570Z,10.50
2017-11-16T01:55:47.074Z,10.50
2017-11-16T01:58:14.537Z,10.50
2017-11-16T02:00:41.997Z,10.50
2017-11-16T02:03:09.485Z,10.50
2017-11-16T02:05:36.990Z,10.60
2017-11-16T02:08:04.529Z,10.50
2017-11-16T02:10:32.083Z,10.60
2017-11-16T02:13:00.310Z,10.60
2017-11-16T02:15:27.818Z,10.60
2017-11-16T02:17:55.325Z,10.60
2017-11-16T02:20:23.582Z,10.50
2017-11-16T02:22:51.125Z,10.50
2017-11-16T02:25:18.589Z,10.50
2017-11-16T02:27:46.830Z,10.50
2017-11-16T02:30:14.308Z,10.50
2017-11-16T02:32:41.765Z,10.50
2017-11-16T02:35:09.223Z,10.50
2017-11-16T02:37:36.806Z,10.50
2017-11-16T02:40:05.035Z,10.50
2017-11-16T02:42:32.603Z,10.50
2017-11-16T02:45:00.074Z,10.50
2017-11-16T02:47:27.584Z,10.40
2017-11-16T02:49:55.130Z,10.40
2017-11-16T02:52:23.394Z,10.40
2017-11-16T02:54:51.646Z,10.40
2017-11-16T02:57:19.193Z,10.40
2017-11-16T02:59:46.689Z,10.40
2017-11-16T03:02:14.190Z,10.30
2017-11-16T03:04:42.437Z,10.20
2017-11-16T03:07:09.981Z,10.20
2017-11-16T03:09:38.210Z,10.20
2017-11-16T03:12:05.685Z,10.10
2017-11-16T03:14:33.946Z,10.10
2017-11-16T03:17:02.184Z,10.10
2017-11-16T03:19:29.637Z,10.10
2017-11-16T03:21:57.098Z,10.10
2017-11-16T03:24:25.341Z,10.10
2017-11-16T03:26:52.891Z,10.00
2017-11-16T03:29:21.140Z,10.00
2017-11-16T03:31:48.706Z,10.00
2017-11-16T03:34:16.934Z,9.90
2017-11-16T03:36:44.497Z,9.90
2017-11-16T03:39:11.955Z,9.90
2017-11-16T03:41:40.198Z,9.80
2017-11-16T03:44:07.670Z,9.80
2017-11-16T03:46:35.121Z,9.80
2017-11-16T03:49:02.569Z,9.80
2017-11-16T03:51:30.065Z,9.80
2017-11-16T03:53:58.326Z,9.80
2017-11-16T03:56:25.778Z,9.80
2017-11-16T03:58:54.021Z,9.80
2017-11-16T04:01:21.485Z,9.80
2017-11-16T04:03:48.956Z,9.80
2017-11-16T04:06:16.417Z,9.80
2017-11-16T04:08:43.898Z,9.80
2017-11-16T04:11:12.150Z,9.80
2017-11-16T04:13:39.601Z,9.80
2017-11-16T04:16:07.817Z,9.80
2017-11-16T04:18:35.289Z,9.80
2017-11-16T04:21:02.850Z,9.80
2017-11-16T04:23:31.065Z,9.80
2017-11-16T04:25:58.541Z,9.80
2017-11-16T04:28:25.989Z,9.80
2017-11-16T04:30:54.246Z,9.80
2017-11-16T04:33:22.467Z,9.80
2017-11-16T04:35:49.909Z,9.80
2017-11-16T04:38:17.469Z,9.80
2017-11-16T04:40:44.917Z,9.80
2017-11-16T04:43:12.369Z,9.80
2017-11-16T04:45:39.909Z,9.80
2017-11-16T04:48:07.373Z,9.80
2017-11-16T04:50:35.590Z,9.70
2017-11-16T04:53:03.045Z,9.70
2017-11-16T04:55:30.496Z,9.70
2017-11-16T04:57:58.757Z,9.60
2017-11-16T05:00:27.017Z,9.60
2017-11-16T05:02:54.473Z,9.60
2017-11-16T05:05:22.816Z,9.50
2017-11-16T05:07:50.281Z,9.50
2017-11-16T05:10:18.621Z,9.50
2017-11-16T05:12:46.077Z,9.50
2017-11-16T05:15:14.297Z,9.50
2017-11-16T05:17:41.765Z,9.50
2017-11-16T05:20:10.031Z,9.50
2017-11-16T05:22:38.284Z,9.50
2017-11-16T05:25:05.733Z,9.50
2017-11-16T05:27:33.963Z,9.50
2017-11-16T05:30:01.526Z,9.50
2017-11-16T05:32:28.978Z,9.50
2017-11-16T05:34:57.225Z,9.50
2017-11-16T05:37:24.698Z,9.50
2017-11-16T05:39:52.196Z,9.50
2017-11-16T05:42:19.649Z,9.50
2017-11-16T05:44:47.141Z,9.50
2017-11-16T05:47:14.644Z,9.50
2017-11-16T05:49:42.098Z,9.60
2017-11-16T05:52:10.342Z,9.50
2017-11-16T05:54:37.894Z,9.50
2017-11-16T05:57:06.122Z,9.50
2017-11-16T05:59:33.618Z,9.50
2017-11-16T06:02:01.069Z,9.50
2017-11-16T06:04:28.517Z,9.50
2017-11-16T06:06:56.013Z,9.50
2017-11-16T06:09:23.466Z,9.50
2017-11-16T06:11:51.686Z,9.50
2017-11-16T06:14:19.157Z,9.50
2017-11-16T06:16:46.625Z,9.50
2017-11-16T06:19:14.837Z,9.50
2017-11-16T06:21:42.396Z,9.50
2017-11-16T06:24:09.941Z,9.50
2017-11-16T06:26:37.393Z,9.50
2017-11-16T06:29:05.713Z,9.50
2017-11-16T06:31:33.193Z,9.50
2017-11-16T06:34:00.642Z,9.50
2017-11-16T06:36:28.881Z,9.60
2017-11-16T06:38:56.433Z,9.60
2017-11-16T06:41:23.881Z,9.60
2017-11-16T06:43:52.290Z,9.60
2017-11-16T06:46:19.738Z,9.60
2017-11-16T06:48:47.184Z,9.60
2017-11-16T06:51:14.665Z,9.70
2017-11-16T06:53:42.210Z,9.70
2017-11-16T06:56:09.669Z,9.80
2017-11-16T06:58:37.881Z,9.70
2017-11-16T07:01:05.371Z,9.60
2017-11-16T07:03:33.584Z,9.60
2017-11-16T07:06:01.033Z,9.60
2017-11-16T07:08:28.497Z,9.60
2017-11-16T07:10:56.748Z,9.60
2017-11-16T07:13:24.295Z,9.60
2017-11-16T07:15:51.842Z,9.70
2017-11-16T07:18:19.386Z,9.60
2017-11-16T07:20:46.931Z,9.60
2017-11-16T07:23:14.473Z,9.60
2017-11-16T07:25:41.921Z,9.60
2017-11-16T07:28:10.169Z,9.60
2017-11-16T07:30:37.622Z,9.60
2017-11-16T07:33:05.837Z,9.60
2017-11-16T07:35:33.297Z,9.60
2017-11-16T07:38:00.761Z,9.60
2017-11-16T07:40:28.225Z,9.60
2017-11-16T07:42:56.473Z,9.60
2017-11-16T07:45:23.925Z,9.60
2017-11-16T07:47:52.141Z,9.70
2017-11-16T07:50:19.597Z,9.70
2017-11-16T07:52:47.062Z,9.70
2017-11-16T07:55:15.285Z,9.70
2017-11-16T07:57:42.745Z,9.70
2017-11-16T08:00:10.296Z,9.70
2017-11-16T08:02:37.838Z,9.80
2017-11-16T08:05:05.293Z,9.80
2017-11-16T08:07:33.636Z,9.80
2017-11-16T08:10:01.183Z,9.80
2017-11-16T08:12:28.729Z,9.80
2017-11-16T08:14:56.985Z,9.80
2017-11-16T08:17:24.529Z,9.80
2017-11-16T08:19:52.027Z,9.80
2017-11-16T08:22:19.515Z,9.80
2017-11-16T08:24:46.969Z,9.80
2017-11-16T08:27:15.193Z,9.80
2017-11-16T08:29:42.659Z,9.70
2017-11-16T08:32:10.141Z,9.80
2017-11-16T08:34:37.590Z,9.70
2017-11-16T08:37:05.037Z,9.70
2017-11-16T08:39:32.518Z,9.70
2017-11-16T08:41:59.982Z,9.70
2017-11-16T08:44:28.225Z,9.70
2017-11-16T08:46:55.709Z,9.60
2017-11-16T08:49:23.161Z,9.60
2017-11-16T08:51:50.612Z,9.60
2017-11-16T08:54:18.185Z,9.60
2017-11-16T08:56:45.642Z,9.60
2017-11-16T08:59:13.897Z,9.70
2017-11-16T09:01:42.131Z,9.70
2017-11-16T09:04:09.698Z,9.70
2017-11-16T09:06:37.243Z,9.80
2017-11-16T09:09:05.493Z,9.70
2017-11-16T09:11:33.054Z,9.70
2017-11-16T09:14:01.358Z,9.60
2017-11-16T09:16:28.825Z,9.60
2017-11-16T09:18:56.285Z,9.60
2017-11-16T09:21:23.929Z,9.60
2017-11-16T09:23:51.409Z,9.60
2017-11-16T09:26:18.877Z,9.60
2017-11-16T09:28:46.377Z,9.60
2017-11-16T09:31:14.610Z,9.60
2017-11-16T09:33:42.057Z,9.60
2017-11-16T09:36:09.605Z,9.60
2017-11-16T09:38:37.099Z,9.60
2017-11-16T09:41:04.589Z,9.60
2017-11-16T09:43:32.133Z,9.50
2017-11-16T09:45:59.679Z,9.50
2017-11-16T09:48:27.901Z,9.50
2017-11-16T09:50:55.372Z,9.40
2017-11-16T09:53:22.922Z,9.50
2017-11-16T09:55:50.466Z,9.50
2017-11-16T09:58:18.707Z,9.50
2017-11-16T10:00:46.936Z,9.60
2017-11-16T10:03:14.394Z,9.60
2017-11-16T10:05:41.966Z,9.60
2017-11-16T10:08:09.429Z,9.70
2017-11-16T10:10:37.671Z,9.70
2017-11-16T10:13:05.150Z,9.70
2017-11-16T10:15:32.645Z,9.80
2017-11-16T10:18:00.189Z,9.90
2017-11-16T10:20:27.746Z,10.00
2017-11-16T10:22:55.978Z,10.10
2017-11-16T10:25:23.545Z,10.10
2017-11-16T10:27:51.006Z,10.20
2017-11-16T10:30:19.238Z,10.30
2017-11-16T10:32:46.723Z,10.30
2017-11-16T10:35:14.185Z,10.30
2017-11-16T10:37:41.682Z,10.30
2017-11-16T10:40:09.943Z,10.30
2017-11-16T10:42:38.301Z,10.30
2017-11-16T10:45:06.541Z,10.40
2017-11-16T10:47:33.998Z,10.40
2017-11-16T10:50:01.466Z,10.50
2017-11-16T10:52:28.970Z,10.60
2017-11-16T10:54:56.433Z,10.70
2017-11-16T10:57:24.665Z,10.70
2017-11-16T10:59:52.922Z,10.70
2017-11-16T11:02:21.181Z,10.80
2017-11-16T11:04:49.566Z,10.80
2017-11-16T11:07:17.035Z,10.90
2017-11-16T11:09:44.539Z,11.00
2017-11-16T11:12:12.790Z,11.20
2017-11-16T11:14:41.054Z,11.20
2017-11-16T11:17:09.405Z,11.20
2017-11-16T11:19:37.670Z,11.30
2017-11-16T11:22:05.908Z,11.40
2017-11-16T11:24:33.478Z,11.40
2017-11-16T11:27:01.706Z,11.10
2017-11-16T11:29:29.162Z,11.10
2017-11-16T11:31:56.718Z,11.00
2017-11-16T11:34:24.977Z,10.90
2017-11-16T11:36:53.210Z,10.90
2017-11-16T11:39:20.781Z,10.90
2017-11-16T11:41:49.004Z,10.90
2017-11-16T11:44:16.474Z,10.90
2017-11-16T11:46:43.969Z,10.70
2017-11-16T11:49:11.429Z,10.60
2017-11-16T11:51:38.890Z,10.60
2017-11-16T11:54:06.454Z,10.50
2017-11-16T11:56:34.685Z,10.60
2017-11-16T11:59:02.268Z,10.60
2017-11-16T12:01:29.817Z,10.70
2017-11-16T12:03:58.039Z,10.70
2017-11-16T12:06:25.546Z,10.70
2017-11-16T12:08:53.002Z,10.80
2017-11-16T12:11:20.477Z,10.80
2017-11-16T12:13:48.042Z,10.90
2017-11-16T12:16:16.306Z,11.10
2017-11-16T12:18:44.533Z,11.10
2017-11-16T12:21:12.105Z,11.10
2017-11-16T12:23:40.337Z,11.10
2017-11-16T12:26:07.910Z,11.10
2017-11-16T12:28:36.145Z,11.10
2017-11-16T12:31:03.611Z,11.00
2017-11-16T12:33:31.107Z,11.00
2017-11-16T12:35:58.569Z,11.00
2017-11-16T12:38:26.034Z,10.90
2017-11-16T12:40:53.531Z,10.70
2017-11-16T12:43:21.021Z,10.80
2017-11-16T12:45:49.272Z,10.90
2017-11-16T12:48:16.785Z,10.80
2017-11-16T12:50:44.280Z,11.00
2017-11-16T12:53:12.527Z,11.30
2017-11-16T12:55:40.786Z,11.30
2017-11-16T12:58:08.303Z,11.20
2017-11-16T13:00:36.657Z,11.40
2017-11-16T13:03:04.885Z,11.50
2017-11-16T13:05:32.362Z,11.50
2017-11-16T13:08:00.717Z,11.50
2017-11-16T13:10:28.185Z,11.50
2017-11-16T13:12:55.657Z,11.40
2017-11-16T13:15:23.156Z,11.30
2017-11-16T13:17:51.386Z,11.30
2017-11-16T13:20:18.865Z,11.30
2017-11-16T13:22:47.118Z,11.20
2017-11-16T13:25:15.349Z,11.20
2017-11-16T13:27:42.813Z,11.20
2017-11-16T13:30:11.078Z,11.00
2017-11-16T13:32:39.321Z,10.90
2017-11-16T13:35:06.781Z,10.90
2017-11-16T13:37:35.013Z,10.80
2017-11-16T13:40:02.496Z,10.80
2017-11-16T13:42:29.961Z,10.90
2017-11-16T13:44:57.439Z,10.90
2017-11-16T13:47:24.997Z,10.90
2017-11-16T13:49:53.265Z,10.90
2017-11-16T13:52:21.497Z,10.90
2017-11-16T13:54:48.965Z,10.90
2017-11-16T13:57:17.189Z,10.90
2017-11-16T13:59:44.658Z,10.90
2017-11-16T14:02:12.210Z,10.90
2017-11-16T14:04:40.435Z,10.80
2017-11-16T14:07:07.910Z,10.80
2017-11-16T14:09:36.160Z,10.80
2017-11-16T14:12:03.713Z,10.80
2017-11-16T14:14:31.257Z,10.70
2017-11-16T14:16:59.517Z,10.80
2017-11-16T14:19:27.749Z,10.70
2017-11-16T14:21:55.211Z,10.60
2017-11-16T14:24:22.762Z,10.70
2017-11-16T14:26:51.064Z,10.60
2017-11-16T14:29:18.565Z,10.60
2017-11-16T14:31:46.802Z,10.60
2017-11-16T14:34:14.290Z,10.60
2017-11-16T14:36:41.814Z,10.50
2017-11-16T14:39:10.042Z,10.50
2017-11-16T14:41:37.522Z,10.50
2017-11-16T14:44:05.774Z,10.60
2017-11-16T14:46:33.317Z,10.60
2017-11-16T14:49:01.562Z,10.70
2017-11-16T14:51:29.024Z,10.70
2017-11-16T14:53:57.281Z,10.70
2017-11-16T14:56:25.513Z,10.70
2017-11-16T14:58:52.970Z,10.70
2017-11-16T15:01:20.477Z,10.60
2017-11-16T15:03:47.937Z,10.60
2017-11-16T15:06:15.409Z,10.60
2017-11-16T15:08:43.645Z,10.60
2017-11-16T15:11:11.201Z,10.60
2017-11-16T15:13:39.434Z,10.50
2017-11-16T15:16:06.918Z,10.50
2017-11-16T15:18:35.174Z,10.50
2017-11-16T15:21:03.429Z,10.50
2017-11-16T15:23:31.802Z,10.50
2017-11-16T15:26:00.021Z,10.50
2017-11-16T15:28:27.480Z,10.50
2017-11-16T15:30:54.969Z,10.50
2017-11-16T15:33:22.437Z,10.50
2017-11-16T15:35:49.907Z,10.40
2017-11-16T15:38:17.390Z,10.40
2017-11-16T15:40:44.906Z,10.30
2017-11-16T15:43:13.147Z,10.20
2017-11-16T15:45:40.634Z,10.10
2017-11-16T15:48:08.093Z,10.10
2017-11-16T15:50:35.550Z,10.10
2017-11-16T15:53:03.137Z,10.00
2017-11-16T15:55:30.593Z,9.90
2017-11-16T15:57:58.817Z,9.90
2017-11-16T16:00:26.277Z,9.90
2017-11-16T16:02:54.501Z,9.90
2017-11-16T16:05:21.989Z,9.90
2017-11-16T16:07:50.291Z,10.00
2017-11-16T16:10:17.740Z,10.00
2017-11-16T16:12:45.217Z,9.90
2017-11-16T16:15:12.677Z,9.90
2017-11-16T16:17:40.907Z,9.80
2017-11-16T16:20:08.461Z,9.80
2017-11-16T16:22:35.920Z,9.80
2017-11-16T16:25:04.165Z,9.80
2017-11-16T16:27:31.708Z,9.80
2017-11-16T16:29:59.166Z,9.80
2017-11-16T16:32:27.389Z,9.90
2017-11-16T16:34:54.877Z,9.90
2017-11-16T16:37:22.331Z,9.90
2017-11-16T16:39:49.781Z,9.90
2017-11-16T16:42:17.249Z,9.90
2017-11-16T16:44:44.739Z,9.90
2017-11-16T16:47:12.965Z,9.90
2017-11-16T16:49:40.414Z,9.90
2017-11-16T16:52:07.897Z,9.80
2017-11-16T16:54:35.378Z,9.80
2017-11-16T16:57:02.817Z,9.90
2017-11-16T16:59:30.393Z,9.90
2017-11-16T17:01:57.846Z,9.80
2017-11-16T17:04:26.073Z,9.90
2017-11-16T17:06:53.528Z,9.80
2017-11-16T17:09:21.077Z,9.90
2017-11-16T17:11:48.617Z,9.90
2017-11-16T17:14:16.080Z,10.00
2017-11-16T17:16:44.329Z,9.90
2017-11-16T17:19:12.579Z,9.90
2017-11-16T17:21:40.847Z,9.80
2017-11-16T17:24:08.385Z,9.80
2017-11-16T17:26:35.837Z,9.70
2017-11-16T17:29:04.085Z,9.60
2017-11-16T17:31:31.545Z,9.60
2017-11-16T17:33:59.780Z,9.70
2017-11-16T17:36:27.385Z,9.70
2017-11-16T17:38:54.880Z,9.70
2017-11-16T17:41:23.134Z,9.60
2017-11-16T17:43:51.398Z,9.60
2017-11-16T17:46:18.936Z,9.60
2017-11-16T17:48:46.437Z,9.60
2017-11-16T17:51:13.929Z,9.50
2017-11-16T17:53:42.186Z,9.50
2017-11-16T17:56:10.429Z,9.50
2017-11-16T17:58:37.984Z,9.40
2017-11-16T18:01:05.442Z,9.50
2017-11-16T18:03:33.666Z,9.50
2017-11-16T18:06:01.146Z,9.50
2017-11-16T18:08:29.398Z,9.50
2017-11-16T18:10:57.613Z,9.50
2017-11-16T18:13:25.088Z,9.50
2017-11-16T18:15:52.635Z,9.50
2017-11-16T18:18:20.896Z,9.50
2017-11-16T18:20:48.365Z,9.50
2017-11-16T18:23:15.821Z,9.50
2017-11-16T18:25:43.325Z,9.50
2017-11-16T18:28:11.597Z,9.50
2017-11-16T18:30:39.129Z,9.50
2017-11-16T18:33:07.382Z,9.60
2017-11-16T18:35:34.849Z,9.50
2017-11-16T18:38:03.065Z,9.60
2017-11-16T18:40:30.648Z,9.50
2017-11-16T18:42:58.868Z,9.60
2017-11-16T18:45:26.434Z,9.50
2017-11-16T18:47:53.930Z,9.60
2017-11-16T18:50:21.409Z,9.50
2017-11-16T18:52:48.916Z,9.50
2017-11-16T18:55:16.410Z,9.50
2017-11-16T18:57:44.720Z,9.50
2017-11-16T19:00:12.236Z,9.40
2017-11-16T19:02:39.763Z,9.50
2017-11-16T19:05:08.067Z,9.50
2017-11-16T19:07:35.634Z,9.50
2017-11-16T19:10:03.275Z,9.50
2017-11-16T19:12:30.943Z,9.50
2017-11-16T19:14:59.465Z,9.60
2017-11-16T19:17:27.068Z,9.60
2017-11-16T19:19:54.553Z,9.50
2017-11-16T19:22:22.039Z,9.50
2017-11-16T19:24:49.700Z,9.50
2017-11-16T19:27:17.489Z,9.60
2017-11-16T19:29:45.340Z,9.60
2017-11-16T19:32:13.190Z,9.60
2017-11-16T19:34:41.040Z,9.60
2017-11-16T19:37:08.837Z,9.70
2017-11-16T19:39:36.681Z,9.60
2017-11-16T19:42:04.928Z,9.70
2017-11-16T19:44:33.681Z,9.60
2017-11-16T19:47:01.524Z,9.60
2017-11-16T19:49:29.394Z,9.60
2017-11-16T19:51:57.942Z,9.70
2017-11-16T19:54:25.997Z,9.70
2017-11-16T19:56:53.848Z,9.70
2017-11-16T19:59:21.887Z,9.80
2017-11-16T20:01:49.741Z,9.80
2017-11-16T20:04:17.684Z,9.70
2017-11-16T20:06:45.557Z,9.70
2017-11-16T20:09:13.408Z,9.80
2017-11-16T20:11:41.257Z,9.70
2017-11-16T20:14:09.516Z,9.80
2017-11-16T20:16:37.572Z,9.70
2017-11-16T20:19:05.529Z,9.80
2017-11-16T20:21:34.197Z,9.80
2017-11-16T20:24:02.023Z,9.80
2017-11-16T20:26:29.867Z,9.80
2017-11-16T20:28:57.751Z,9.80
2017-11-16T20:31:25.601Z,9.80
2017-11-16T20:33:54.243Z,9.70
2017-11-16T20:36:22.023Z,9.70
2017-11-16T20:42:07.204Z,9.70
2017-11-16T20:44:39.335Z,9.80
2017-11-16T20:47:07.645Z,9.80
2017-11-16T20:49:41.752Z,9.80
2017-11-16T20:52:14.947Z,9.80
2017-11-16T20:54:42.601Z,9.80
2017-11-16T20:57:10.072Z,9.80
2017-11-16T20:59:37.597Z,9.70
2017-11-16T21:02:05.156Z,9.80
2017-11-16T21:04:32.625Z,9.70
2017-11-16T21:07:00.945Z,9.80
2017-11-16T21:09:28.480Z,9.80
2017-11-16T21:11:55.965Z,9.80
2017-11-16T21:14:24.943Z,9.70
2017-11-16T21:16:53.185Z,9.80
2017-11-16T21:19:20.659Z,9.80
2017-11-16T21:21:48.113Z,9.80
2017-11-16T21:24:15.618Z,9.80
2017-11-16T21:26:43.852Z,9.80
2017-11-16T21:29:11.417Z,9.80
2017-11-16T21:31:39.681Z,9.70
2017-11-16T21:34:07.913Z,9.80
2017-11-16T21:36:35.369Z,9.80
2017-11-16T21:39:02.842Z,9.70
2017-11-16T21:41:30.314Z,9.70
2017-11-16T21:43:57.791Z,9.80
2017-11-16T21:46:25.265Z,9.80
2017-11-16T21:48:52.717Z,9.80
2017-11-16T21:51:20.233Z,9.80
2017-11-16T21:53:47.779Z,9.80
2017-11-16T21:56:16.004Z,9.70
2017-11-16T21:58:43.494Z,9.70
2017-11-16T22:01:11.737Z,9.80
2017-11-16T22:03:39.966Z,9.80
2017-11-16T22:06:07.466Z,9.80
2017-11-16T22:08:34.942Z,9.90
2017-11-16T22:11:02.401Z,9.80
2017-11-16T22:13:29.986Z,9.80
2017-11-16T22:15:57.456Z,9.80
2017-11-16T22:18:24.908Z,9.80
2017-11-16T22:20:52.357Z,9.80
2017-11-16T22:23:19.824Z,9.80
2017-11-16T22:25:47.281Z,9.80
2017-11-16T22:28:14.746Z,9.80
2017-11-16T22:30:42.978Z,9.80
2017-11-16T22:33:10.432Z,9.80
2017-11-16T22:35:38.661Z,9.80
2017-11-16T22:38:06.137Z,9.80
2017-11-16T22:40:34.361Z,9.80
2017-11-16T22:43:01.817Z,9.70
2017-11-16T22:45:29.290Z,9.70
2017-11-16T22:47:57.514Z,9.70
2017-11-16T22:50:24.973Z,9.70
2017-11-16T22:52:52.519Z,9.70
2017-11-16T22:55:20.053Z,9.70
2017-11-16T22:57:47.516Z,9.70
2017-11-16T23:00:15.733Z,9.80
2017-11-16T23:02:43.309Z,9.80
2017-11-16T23:05:11.546Z,9.80
2017-11-16T23:07:39.009Z,9.80
2017-11-16T23:10:06.478Z,9.80
2017-11-16T23:12:33.998Z,9.90
2017-11-16T23:15:01.458Z,9.90
2017-11-16T23:17:28.945Z,9.80
2017-11-16T23:19:57.302Z,9.80
2017-11-16T23:22:24.763Z,9.80
2017-11-16T23:24:53.493Z,9.80
2017-11-16T23:27:21.069Z,9.80
2017-11-16T23:29:49.288Z,9.80
2017-11-16T23:32:16.770Z,9.80
2017-11-16T23:34:44.989Z,9.80
2017-11-16T23:37:12.462Z,9.80
2017-11-16T23:39:39.917Z,9.90
2017-11-16T23:42:08.271Z,9.90
2017-11-16T23:44:36.501Z,9.80
2017-11-16T23:47:03.967Z,9.80
2017-11-16T23:49:31.425Z,9.90
2017-11-16T23:51:59.769Z,9.80
2017-11-16T23:54:27.989Z,9.80
2017-11-16T23:56:55.450Z,9.80
2017-11-16T23:59:23.013Z,9.80
